Time;durP1;ratioP1;P1;durP2;ratioP2;P2;SDS_P1;SDS_P2;PMS_P1;PMS_P2;Temp;Humidity;BMP_temperature;BMP_pressure;BME280_temperature;BME280_humidity;BME280_pressure;Samples;Min_cycle;Max_cycle;Signal;HPM_P1;HPM_P2
2021/08/29 00:01:16;;;;;;;3.70;3.40;;;15.30;99.90;;;;;;6323291;28;20483;-69
2021/08/29 00:04:20;;;;;;;5.20;2.93;;;15.20;99.90;;;;;;6323819;28;20468;-70
2021/08/29 00:07:24;;;;;;;4.43;2.90;;;15.20;99.90;;;;;;6334636;28;20484;-60
2021/08/29 00:10:28;;;;;;;6.03;3.10;;;15.10;99.90;;;;;;6332165;28;20833;-66
2021/08/29 00:13:31;;;;;;;3.90;3.60;;;15.20;99.90;;;;;;6332532;28;20801;-60
2021/08/29 00:16:34;;;;;;;3.53;3.23;;;15.30;99.90;;;;;;6337961;28;20486;-68
2021/08/29 00:19:39;;;;;;;3.17;2.87;;;15.30;99.90;;;;;;6336800;28;20456;-69
2021/08/29 00:22:42;;;;;;;3.30;3.00;;;15.30;99.90;;;;;;6338977;28;20791;-71
2021/08/29 00:25:46;;;;;;;2.97;2.70;;;15.30;99.90;;;;;;6336541;28;20472;-70
2021/08/29 00:28:49;;;;;;;4.93;3.00;;;15.20;99.90;;;;;;6334641;28;20460;-71
2021/08/29 00:31:52;;;;;;;3.93;3.03;;;15.10;99.90;;;;;;6337985;28;20549;-64
2021/08/29 00:34:56;;;;;;;4.03;3.40;;;15.10;99.90;;;;;;6338035;28;20472;-61
2021/08/29 00:38:00;;;;;;;3.50;2.90;;;15.10;99.90;;;;;;6336185;28;20466;-66
2021/08/29 00:41:06;;;;;;;3.43;2.97;;;15.10;99.90;;;;;;6337435;28;20800;-66
2021/08/29 00:44:09;;;;;;;3.30;3.00;;;15.20;99.90;;;;;;6331690;28;20974;-67
2021/08/29 00:47:12;;;;;;;3.23;3.00;;;15.20;99.90;;;;;;6337581;28;20483;-67
2021/08/29 00:50:18;;;;;;;2.70;2.50;;;15.20;99.90;;;;;;6336549;28;20464;-66
2021/08/29 00:53:23;;;;;;;4.83;2.77;;;15.10;99.90;;;;;;6340088;28;20599;-67
2021/08/29 00:56:29;;;;;;;3.33;2.80;;;15.10;99.90;;;;;;6343874;27;20993;-66
2021/08/29 00:59:32;;;;;;;2.87;2.50;;;15.10;99.90;;;;;;6332970;28;20472;-66
2021/08/29 01:02:35;;;;;;;3.00;2.60;;;15.10;99.90;;;;;;6339526;28;20516;-66
2021/08/29 01:05:45;;;;;;;2.57;2.37;;;15.00;99.90;;;;;;6337658;28;20471;-66
2021/08/29 01:08:54;;;;;;;2.13;2.03;;;15.00;99.90;;;;;;6333981;28;20468;-66
2021/08/29 01:11:57;;;;;;;2.97;2.67;;;15.10;99.90;;;;;;6325226;28;20468;-67
2021/08/29 01:15:03;;;;;;;2.70;2.50;;;15.00;99.90;;;;;;6331108;28;20463;-67
2021/08/29 01:18:08;;;;;;;2.23;2.03;;;15.00;99.90;;;;;;6344852;28;20804;-66
2021/08/29 01:21:15;;;;;;;4.03;2.00;;;15.00;99.90;;;;;;6326682;28;20433;-67
2021/08/29 01:24:21;;;;;;;3.67;2.37;;;15.00;99.90;;;;;;6336436;28;20817;-67
2021/08/29 01:27:30;;;;;;;3.67;2.20;;;15.00;99.90;;;;;;6336007;28;20794;-67
2021/08/29 01:30:35;;;;;;;2.13;1.57;;;14.90;99.90;;;;;;6337511;28;20467;-67
2021/08/29 01:33:39;;;;;;;2.33;2.10;;;14.90;99.90;;;;;;6328926;28;20475;-67
2021/08/29 01:36:45;;;;;;;2.53;2.33;;;14.90;99.90;;;;;;6326276;28;20472;-67
2021/08/29 01:39:50;;;;;;;3.80;1.90;;;14.80;99.90;;;;;;6326245;28;20464;-67
2021/08/29 01:42:53;;;;;;;3.93;2.00;;;14.60;99.90;;;;;;6326389;28;20464;-67
2021/08/29 01:45:58;;;;;;;2.03;1.80;;;14.70;99.90;;;;;;6325927;28;20471;-67
2021/08/29 01:49:04;;;;;;;2.33;2.10;;;14.80;99.90;;;;;;6326351;28;20483;-66
2021/08/29 01:52:08;;;;;;;2.20;2.10;;;14.80;99.90;;;;;;6325464;28;20867;-67
2021/08/29 01:55:11;;;;;;;2.80;2.20;;;14.80;99.90;;;;;;6326000;28;20483;-66
2021/08/29 01:58:14;;;;;;;2.27;2.07;;;14.80;99.90;;;;;;6325416;28;20483;-66
2021/08/29 02:01:19;;;;;;;2.00;1.90;;;14.80;99.90;;;;;;6325545;28;20480;-67
2021/08/29 02:04:25;;;;;;;2.30;2.10;;;14.90;99.90;;;;;;6325177;28;20563;-67
2021/08/29 02:07:33;;;;;;;2.03;1.83;;;14.80;99.90;;;;;;6325424;28;20787;-67
2021/08/29 02:10:36;;;;;;;2.73;2.53;;;14.80;99.90;;;;;;6325408;28;20479;-66
2021/08/29 02:13:43;;;;;;;2.30;2.10;;;14.80;99.90;;;;;;6320833;28;20468;-66
2021/08/29 02:16:50;;;;;;;2.17;1.97;;;14.80;99.90;;;;;;6324871;28;20966;-67
2021/08/29 02:19:55;;;;;;;2.83;2.00;;;14.80;99.90;;;;;;6325420;28;20468;-66
2021/08/29 02:22:59;;;;;;;2.57;2.20;;;14.80;99.90;;;;;;6324802;28;20465;-66
2021/08/29 02:26:03;;;;;;;1.90;1.70;;;14.70;99.90;;;;;;6325227;28;20476;-66
2021/08/29 02:29:06;;;;;;;2.30;2.10;;;14.70;99.90;;;;;;6324801;28;20483;-67
2021/08/29 02:32:13;;;;;;;2.50;2.10;;;14.60;99.90;;;;;;6325028;28;20989;-66
2021/08/29 02:35:16;;;;;;;4.40;2.57;;;14.60;99.90;;;;;;6324971;28;20471;-67
2021/08/29 02:38:21;;;;;;;2.50;2.23;;;14.60;99.90;;;;;;6324523;28;20475;-67
2021/08/29 02:41:24;;;;;;;3.63;1.93;;;14.60;99.90;;;;;;6324977;28;20522;-66
2021/08/29 02:44:28;;;;;;;6.53;2.50;;;14.60;99.90;;;;;;6324463;28;20475;-66
2021/08/29 02:47:33;;;;;;;6.50;2.77;;;14.60;99.90;;;;;;6324880;28;20480;-67
2021/08/29 02:50:37;;;;;;;2.63;2.43;;;14.60;99.90;;;;;;6324322;28;20483;-66
2021/08/29 02:53:41;;;;;;;3.10;2.80;;;14.60;99.90;;;;;;6324529;28;20483;-66
2021/08/29 02:56:47;;;;;;;3.73;2.57;;;14.60;99.90;;;;;;6324115;28;20992;-67
2021/08/29 02:59:51;;;;;;;2.70;2.50;;;14.60;99.90;;;;;;6324244;28;20962;-66
2021/08/29 03:02:56;;;;;;;2.60;2.40;;;14.60;99.90;;;;;;6324011;28;21000;-66
2021/08/29 03:05:59;;;;;;;5.93;2.60;;;14.60;99.90;;;;;;6324342;28;20476;-66
2021/08/29 03:09:03;;;;;;;1.90;1.80;;;14.60;99.90;;;;;;6323891;28;20460;-66
2021/08/29 03:12:09;;;;;;;2.37;2.17;;;14.60;99.90;;;;;;6324193;28;20936;-66
2021/08/29 03:15:14;;;;;;;2.70;2.50;;;14.70;99.90;;;;;;6319242;28;20449;-67
2021/08/29 03:18:19;;;;;;;1.90;1.80;;;14.70;99.90;;;;;;6324018;28;20471;-66
2021/08/29 03:21:22;;;;;;;2.97;2.37;;;14.60;99.90;;;;;;6324635;28;20445;-68
2021/08/29 03:24:26;;;;;;;2.33;2.10;;;14.60;99.90;;;;;;6324023;28;20921;-67
2021/08/29 03:27:29;;;;;;;1.90;1.70;;;14.60;99.90;;;;;;6324196;28;20463;-66
2021/08/29 03:30:32;;;;;;;3.33;2.30;;;14.60;99.90;;;;;;6323767;28;20468;-66
2021/08/29 03:33:40;;;;;;;2.63;1.90;;;14.60;99.90;;;;;;6323988;28;20474;-66
2021/08/29 03:36:45;;;;;;;2.50;2.27;;;14.50;99.90;;;;;;6323840;28;20480;-66
2021/08/29 03:39:49;;;;;;;3.07;2.33;;;14.50;99.90;;;;;;6324354;28;20479;-67
2021/08/29 03:42:53;;;;;;;2.33;1.90;;;14.50;99.90;;;;;;6323936;28;20467;-67
2021/08/29 03:45:57;;;;;;;2.47;2.27;;;14.50;99.90;;;;;;6323631;28;20818;-67
2021/08/29 03:49:02;;;;;;;2.20;2.00;;;14.60;99.90;;;;;;6326090;28;21054;-66
2021/08/29 03:52:07;;;;;;;2.33;2.23;;;14.60;99.90;;;;;;6328687;28;20855;-66
2021/08/29 03:55:14;;;;;;;2.43;2.00;;;14.40;99.90;;;;;;6328319;28;21003;-66
2021/08/29 03:58:17;;;;;;;3.07;2.10;;;14.50;99.90;;;;;;6328523;28;20480;-67
2021/08/29 04:01:21;;;;;;;3.40;2.23;;;14.50;99.90;;;;;;6328708;28;20482;-67
2021/08/29 04:04:27;;;;;;;2.40;2.20;;;14.50;99.90;;;;;;6328619;28;20533;-67
2021/08/29 04:07:31;;;;;;;3.23;2.20;;;14.40;99.90;;;;;;6327979;28;20491;-66
2021/08/29 04:10:35;;;;;;;3.43;2.30;;;14.40;99.90;;;;;;6328485;28;20468;-67
2021/08/29 04:13:39;;;;;;;3.37;2.20;;;14.40;99.90;;;;;;6328223;28;20843;-67
2021/08/29 04:16:42;;;;;;;2.33;2.13;;;14.40;99.90;;;;;;6327925;28;20822;-67
2021/08/29 04:19:47;;;;;;;2.10;1.90;;;14.40;99.90;;;;;;6323329;28;20479;-67
2021/08/29 04:22:51;;;;;;;2.80;2.10;;;14.30;99.90;;;;;;6327657;28;20475;-67
2021/08/29 04:25:54;;;;;;;3.50;2.00;;;14.30;99.90;;;;;;6328095;28;20487;-66
2021/08/29 04:28:58;;;;;;;4.10;3.10;;;14.30;99.90;;;;;;6327808;28;20476;-67
2021/08/29 04:32:04;;;;;;;3.00;2.20;;;14.30;99.90;;;;;;6328303;28;20577;-66
2021/08/29 04:35:09;;;;;;;2.23;2.03;;;14.30;99.90;;;;;;6327950;28;20474;-67
2021/08/29 04:38:12;;;;;;;2.67;1.90;;;14.30;99.90;;;;;;6327838;28;20836;-66
2021/08/29 04:41:15;;;;;;;2.50;2.30;;;14.30;99.90;;;;;;6327587;28;20475;-67
2021/08/29 04:44:18;;;;;;;3.07;2.27;;;14.30;99.90;;;;;;6327677;28;20865;-67
2021/08/29 04:47:22;;;;;;;2.20;2.00;;;14.30;99.90;;;;;;6327505;28;20480;-67
2021/08/29 04:50:26;;;;;;;2.37;2.17;;;14.20;99.90;;;;;;6327312;28;20475;-67
2021/08/29 04:53:29;;;;;;;2.83;2.07;;;14.20;99.90;;;;;;6327197;28;20529;-67
2021/08/29 04:56:32;;;;;;;2.30;2.10;;;14.20;99.90;;;;;;6327305;28;20468;-66
2021/08/29 04:59:35;;;;;;;2.63;2.43;;;14.20;99.90;;;;;;6325722;28;20476;-66
2021/08/29 05:02:39;;;;;;;6.03;2.27;;;14.20;99.90;;;;;;6327112;28;20468;-67
2021/08/29 05:05:43;;;;;;;2.13;2.03;;;14.20;99.90;;;;;;6327003;28;20796;-66
2021/08/29 05:08:47;;;;;;;2.53;2.33;;;14.20;99.90;;;;;;6326492;28;20476;-67
2021/08/29 05:11:50;;;;;;;2.00;1.80;;;14.30;99.90;;;;;;6327381;28;20472;-66
2021/08/29 05:14:54;;;;;;;2.20;2.10;;;14.30;99.90;;;;;;6326847;28;20468;-66
2021/08/29 05:17:57;;;;;;;2.20;1.80;;;14.30;99.90;;;;;;6326760;28;20468;-66
2021/08/29 05:21:02;;;;;;;2.70;2.50;;;14.30;99.90;;;;;;6326815;28;20483;-66
2021/08/29 05:24:08;;;;;;;2.90;1.87;;;14.30;99.90;;;;;;6327577;28;20530;-67
2021/08/29 05:27:11;;;;;;;2.07;1.97;;;14.30;99.90;;;;;;6326936;28;20494;-62
2021/08/29 05:30:15;;;;;;;3.37;1.90;;;14.40;99.90;;;;;;6326621;28;20913;-61
2021/08/29 05:33:18;;;;;;;1.90;1.60;;;14.40;99.90;;;;;;6326485;28;20444;-61
2021/08/29 05:36:22;;;;;;;2.30;2.10;;;14.40;99.90;;;;;;6326376;28;20437;-61
2021/08/29 05:39:26;;;;;;;2.47;1.90;;;14.50;99.90;;;;;;6326156;28;20773;-61
2021/08/29 05:42:29;;;;;;;1.63;1.53;;;14.60;99.90;;;;;;6326370;28;20452;-61
2021/08/29 05:45:32;;;;;;;2.50;1.50;;;14.70;99.90;;;;;;6326563;28;20456;-60
2021/08/29 05:48:36;;;;;;;1.47;1.37;;;14.80;99.90;;;;;;6326169;28;20554;-60
2021/08/29 05:51:40;;;;;;;2.20;1.33;;;14.80;99.90;;;;;;6326242;28;20476;-60
2021/08/29 05:54:43;;;;;;;1.40;1.30;;;14.90;99.90;;;;;;6325631;28;20475;-61
2021/08/29 05:57:46;;;;;;;1.30;1.20;;;15.00;99.90;;;;;;6325891;28;21030;-61
2021/08/29 06:00:49;;;;;;;3.20;1.30;;;15.10;99.90;;;;;;6325422;28;20992;-61
2021/08/29 06:03:53;;;;;;;1.33;1.23;;;15.30;99.90;;;;;;6325885;28;20812;-60
2021/08/29 06:06:57;;;;;;;1.57;1.23;;;15.40;99.90;;;;;;6325536;28;20488;-61
2021/08/29 06:10:01;;;;;;;1.53;1.27;;;15.70;99.90;;;;;;6325832;28;20464;-61
2021/08/29 06:13:04;;;;;;;1.50;1.40;;;16.10;99.90;;;;;;6325340;28;20464;-61
2021/08/29 06:16:07;;;;;;;1.23;1.13;;;16.50;99.90;;;;;;6325442;28;20479;-60
2021/08/29 06:19:10;;;;;;;1.50;1.27;;;17.30;99.90;;;;;;6325056;28;20469;-60
2021/08/29 06:22:15;;;;;;;3.80;2.10;;;18.20;98.70;;;;;;6325290;28;20471;-60
2021/08/29 06:25:18;;;;;;;2.33;1.13;;;18.50;97.50;;;;;;6325386;28;20479;-60
2021/08/29 06:28:21;;;;;;;1.10;0.90;;;18.30;96.30;;;;;;6320120;28;20865;-60
2021/08/29 06:31:24;;;;;;;2.53;1.17;;;18.40;95.60;;;;;;6324969;28;20468;-60
2021/08/29 06:34:27;;;;;;;1.30;1.03;;;19.00;94.90;;;;;;6324557;28;20487;-60
2021/08/29 06:37:32;;;;;;;0.87;0.83;;;20.20;93.80;;;;;;6324751;28;20230;-61
2021/08/29 06:40:35;;;;;;;1.10;0.90;;;21.40;91.20;;;;;;6324464;28;20230;-61
2021/08/29 06:43:38;;;;;;;2.10;0.87;;;21.90;87.20;;;;;;6324715;28;20538;-61
2021/08/29 06:46:41;;;;;;;1.30;1.20;;;21.30;82.80;;;;;;6324267;28;20704;-61
2021/08/29 06:49:45;;;;;;;0.80;0.80;;;21.70;84.10;;;;;;6324756;28;20237;-60
2021/08/29 06:52:49;;;;;;;0.97;0.70;;;22.10;79.20;;;;;;6324201;28;20678;-61
2021/08/29 06:55:52;;;;;;;1.40;1.20;;;22.30;76.30;;;;;;6324559;28;20237;-61
2021/08/29 06:58:55;;;;;;;2.00;1.03;;;23.20;76.60;;;;;;6324214;28;20699;-61
2021/08/29 07:01:59;;;;;;;1.80;1.07;;;23.90;71.70;;;;;;6324480;28;20713;-61
2021/08/29 07:05:03;;;;;;;1.93;0.80;;;24.20;67.10;;;;;;6324390;28;20230;-62
2021/08/29 07:08:07;;;;;;;0.90;0.60;;;24.50;65.40;;;;;;6323982;28;20230;-61
2021/08/29 07:11:11;;;;;;;1.10;1.00;;;25.00;63.80;;;;;;6324282;28;20245;-60
2021/08/29 07:14:14;;;;;;;0.80;0.70;;;25.50;60.90;;;;;;6324318;28;20237;-62
2021/08/29 07:17:18;;;;;;;1.23;0.70;;;26.00;58.30;;;;;;6324114;28;20241;-61
2021/08/29 07:20:21;;;;;;;1.20;0.70;;;26.40;56.80;;;;;;6323864;28;20229;-61
2021/08/29 07:23:28;;;;;;;1.03;0.70;;;27.10;54.30;;;;;;6323415;28;20234;-61
2021/08/29 07:26:31;;;;;;;1.07;0.70;;;27.70;52.20;;;;;;6323573;28;20571;-62
2021/08/29 07:29:34;;;;;;;0.80;0.53;;;27.80;49.90;;;;;;6324330;28;20229;-62
2021/08/29 07:32:37;;;;;;;0.90;0.67;;;28.70;48.70;;;;;;6314189;28;20236;-63
2021/08/29 07:35:41;;;;;;;0.70;0.50;;;29.90;46.00;;;;;;6324094;28;20241;-62
2021/08/29 07:38:46;;;;;;;1.00;0.53;;;30.40;43.60;;;;;;6323612;28;20240;-62
2021/08/29 07:41:49;;;;;;;0.80;0.50;;;31.00;41.50;;;;;;6323925;28;20236;-61
2021/08/29 07:44:52;;;;;;;0.90;0.50;;;30.30;42.30;;;;;;6323794;28;20225;-62
2021/08/29 07:47:55;;;;;;;0.70;0.40;;;30.10;42.80;;;;;;6324041;28;20240;-63
2021/08/29 07:50:58;;;;;;;0.90;0.70;;;30.10;42.00;;;;;;6323656;28;20687;-62
2021/08/29 07:54:03;;;;;;;0.93;0.50;;;30.10;41.60;;;;;;6323483;28;20232;-61
2021/08/29 07:57:06;;;;;;;0.90;0.70;;;30.10;42.00;;;;;;6323653;28;20225;-63
2021/08/29 08:00:10;;;;;;;1.70;0.70;;;31.20;41.20;;;;;;6323168;28;20252;-63
2021/08/29 08:03:13;;;;;;;0.90;0.55;;;32.30;38.30;;;;;;6323319;28;20205;-62
2021/08/29 08:06:17;;;;;;;1.42;0.80;;;33.30;37.40;;;;;;6323197;28;20202;-62
2021/08/29 08:09:21;;;;;;;0.77;0.68;;;34.00;36.30;;;;;;6323191;28;20304;-62
2021/08/29 08:12:25;;;;;;;0.80;0.60;;;33.00;34.60;;;;;;6323328;28;20234;-62
2021/08/29 08:15:28;;;;;;;0.80;0.63;;;31.70;36.70;;;;;;6323699;28;20233;-61
2021/08/29 08:18:31;;;;;;;0.77;0.50;;;31.20;37.90;;;;;;6323156;28;20241;-62
2021/08/29 08:21:34;;;;;;;0.80;0.60;;;30.40;37.50;;;;;;6323534;28;20232;-61
2021/08/29 08:24:39;;;;;;;4.00;0.60;;;29.80;39.00;;;;;;6323245;28;20294;-61
2021/08/29 08:27:42;;;;;;;0.80;0.57;;;30.00;39.10;;;;;;6323120;28;20550;-61
2021/08/29 08:30:45;;;;;;;0.80;0.60;;;30.70;38.10;;;;;;6323073;28;20218;-62
2021/08/29 08:33:48;;;;;;;1.10;0.80;;;30.20;38.40;;;;;;6314069;28;20283;-64
2021/08/29 08:36:51;;;;;;;1.77;0.87;;;29.30;39.30;;;;;;6327640;28;20235;-61
2021/08/29 08:39:56;;;;;;;1.03;0.90;;;28.60;41.10;;;;;;6326923;28;20236;-61
2021/08/29 08:42:59;;;;;;;0.70;0.50;;;28.70;40.20;;;;;;6327734;28;20241;-62
2021/08/29 08:46:04;;;;;;;0.70;0.60;;;29.60;40.80;;;;;;6327435;28;20225;-62
2021/08/29 08:49:09;;;;;;;1.53;1.10;;;29.80;39.10;;;;;;6337525;28;20257;-62
2021/08/29 08:52:17;;;;;;;0.80;0.70;;;30.60;39.00;;;;;;6302004;28;20238;-62
2021/08/29 08:55:22;;;;;;;1.55;1.02;;;32.00;36.90;;;;;;6302268;28;20254;-62
2021/08/29 08:58:25;;;;;;;1.10;0.82;;;32.80;35.50;;;;;;6308351;28;20237;-62
2021/08/29 09:01:29;;;;;;;0.82;0.55;;;33.70;34.80;;;;;;6326107;28;20224;-62
2021/08/29 09:04:33;;;;;;;1.20;0.90;;;33.80;33.30;;;;;;6334147;28;20213;-62
2021/08/29 09:07:36;;;;;;;1.17;0.70;;;34.90;32.40;;;;;;6333516;28;20224;-62
2021/08/29 09:10:41;;;;;;;1.30;0.70;;;34.80;32.10;;;;;;6335489;28;20225;-62
2021/08/29 09:13:54;;;;;;;1.00;0.90;;;35.10;31.40;;;;;;6340472;28;20266;-63
2021/08/29 09:16:57;;;;;;;1.63;1.10;;;37.10;30.40;;;;;;6333314;28;20320;-62
2021/08/29 09:20:20;;;;;;;1.17;0.70;;;38.90;29.00;;;;;;6336357;28;20572;-62
2021/08/29 09:23:24;;;;;;;0.80;0.68;;;40.10;27.70;;;;;;6334844;28;20252;-63
2021/08/29 09:26:29;;;;;;;0.77;0.55;;;41.10;25.50;;;;;;6334547;28;20236;-62
2021/08/29 09:29:33;;;;;;;0.70;0.50;;;42.40;25.30;;;;;;6338616;28;20222;-62
2021/08/29 09:32:36;;;;;;;7.55;0.95;;;42.50;24.50;;;;;;6341770;28;20690;-62
2021/08/29 09:35:39;;;;;;;0.93;0.80;;;42.20;24.20;;;;;;6331113;28;20221;-62
2021/08/29 09:38:43;;;;;;;1.00;0.70;;;41.00;24.30;;;;;;6327821;28;20229;-62
2021/08/29 09:41:48;;;;;;;0.88;0.80;;;39.50;24.30;;;;;;6340364;28;20231;-62
2021/08/29 09:44:57;;;;;;;1.33;1.05;;;37.40;25.70;;;;;;6336243;28;20217;-62
2021/08/29 09:48:02;;;;;;;1.10;0.80;;;35.50;27.60;;;;;;6341621;28;20218;-62
2021/08/29 09:51:05;;;;;;;1.00;0.65;;;34.40;28.90;;;;;;6323850;28;20214;-63
2021/08/29 09:54:09;;;;;;;1.10;0.80;;;33.10;29.10;;;;;;6323913;28;20216;-62
2021/08/29 09:57:14;;;;;;;1.60;0.93;;;31.60;31.20;;;;;;6323473;28;20226;-61
2021/08/29 10:00:18;;;;;;;1.07;0.93;;;29.80;34.00;;;;;;6322962;28;20241;-66
2021/08/29 10:03:29;;;;;;;1.10;0.93;;;28.20;36.50;;;;;;6322752;28;20306;-66
2021/08/29 10:06:34;;;;;;;2.43;1.20;;;26.70;39.30;;;;;;6319827;28;20233;-67
2021/08/29 10:09:37;;;;;;;0.80;0.70;;;25.50;41.10;;;;;;6298087;28;20272;-62
2021/08/29 10:12:42;;;;;;;1.73;0.90;;;24.80;41.30;;;;;;6298241;28;20230;-62
2021/08/29 10:15:45;;;;;;;0.80;0.60;;;24.40;43.10;;;;;;6298157;28;20230;-62
2021/08/29 10:18:50;;;;;;;1.37;0.80;;;24.10;44.70;;;;;;6297758;28;20573;-61
2021/08/29 10:21:53;;;;;;;1.30;0.80;;;23.90;45.40;;;;;;6297716;28;20235;-67
2021/08/29 10:24:56;;;;;;;0.70;0.70;;;23.60;45.20;;;;;;6297940;28;20896;-62
2021/08/29 10:28:06;;;;;;;1.60;0.77;;;23.40;46.50;;;;;;6336727;28;20233;-67
2021/08/29 10:31:13;;;;;;;1.10;0.90;;;23.20;46.60;;;;;;6348304;28;20225;-67
2021/08/29 10:34:17;;;;;;;1.50;0.83;;;23.10;46.50;;;;;;6336357;28;20237;-67
2021/08/29 10:37:21;;;;;;;1.40;1.13;;;23.10;47.50;;;;;;6322786;28;20321;-67
2021/08/29 10:40:27;;;;;;;0.70;0.50;;;23.10;48.30;;;;;;6322409;28;20222;-67
2021/08/29 10:43:35;;;;;;;1.37;0.60;;;23.00;48.30;;;;;;6322375;28;20241;-67
2021/08/29 10:46:45;;;;;;;1.10;0.77;;;22.80;48.20;;;;;;6322314;28;20773;-68
2021/08/29 10:49:48;;;;;;;0.60;0.50;;;22.70;49.00;;;;;;6322424;28;20234;-67
2021/08/29 10:52:51;;;;;;;0.60;0.53;;;22.40;47.90;;;;;;6322283;28;20593;-68
2021/08/29 10:56:31;;;;;;;2.63;0.60;;;22.20;49.10;;;;;;6322137;28;20568;-68
2021/08/29 10:59:36;;;;;;;0.80;0.40;;;22.10;48.40;;;;;;6320862;28;20537;-66
2021/08/29 11:02:42;;;;;;;1.03;0.50;;;22.00;49.40;;;;;;6298221;28;20242;-69
2021/08/29 11:05:54;;;;;;;1.27;0.40;;;21.80;49.40;;;;;;6296820;28;20231;-69
2021/08/29 11:09:42;;;;;;;0.73;0.50;;;21.70;49.00;;;;;;6296726;28;20244;-67
2021/08/29 11:12:45;;;;;;;0.83;0.43;;;21.80;49.80;;;;;;6297009;28;20214;-67
2021/08/29 11:15:50;;;;;;;0.70;0.60;;;21.80;49.40;;;;;;6297232;28;20242;-69
2021/08/29 11:19:13;;;;;;;0.70;0.60;;;21.80;50.00;;;;;;6296465;28;20237;-66
2021/08/29 11:22:26;;;;;;;0.50;0.50;;;22.10;49.70;;;;;;6296837;28;20241;-69
2021/08/29 11:25:29;;;;;;;0.97;0.50;;;22.20;48.60;;;;;;6297002;28;20231;-68
2021/08/29 11:28:32;;;;;;;0.70;0.53;;;22.50;48.50;;;;;;6296725;28;20239;-66
2021/08/29 11:31:52;;;;;;;0.70;0.50;;;23.10;48.30;;;;;;6296799;28;20230;-68
2021/08/29 11:35:05;;;;;;;0.70;0.60;;;24.10;46.70;;;;;;6296504;28;20223;-64
2021/08/29 11:38:11;;;;;;;0.80;0.70;;;24.50;44.80;;;;;;6296587;28;20230;-68
2021/08/29 11:41:16;;;;;;;1.23;0.60;;;25.20;45.00;;;;;;6296324;28;20234;-69
2021/08/29 11:44:20;;;;;;;0.83;0.50;;;25.50;43.30;;;;;;6296721;28;20317;-69
2021/08/29 11:47:26;;;;;;;0.80;0.50;;;25.80;43.50;;;;;;6292165;28;20245;-68
2021/08/29 11:50:32;;;;;;;0.60;0.40;;;26.00;42.40;;;;;;6296672;28;20239;-68
2021/08/29 11:53:48;;;;;;;0.80;0.70;;;26.00;42.50;;;;;;6296425;28;20241;-68
2021/08/29 11:56:51;;;;;;;0.70;0.50;;;25.80;41.50;;;;;;6296382;28;20231;-68
2021/08/29 12:00:06;;;;;;;1.30;0.73;;;25.40;41.50;;;;;;6301673;28;20573;-68
2021/08/29 12:03:12;;;;;;;0.80;0.63;;;25.00;42.40;;;;;;6296757;28;20353;-69
2021/08/29 12:06:22;;;;;;;1.00;0.70;;;24.60;43.30;;;;;;6296419;28;20233;-66
2021/08/29 12:09:28;;;;;;;0.80;0.50;;;24.60;44.00;;;;;;6297941;28;20670;-66
2021/08/29 12:12:32;;;;;;;0.80;0.60;;;24.80;44.20;;;;;;6300815;28;20223;-67
2021/08/29 12:15:35;;;;;;;0.70;0.60;;;25.00;44.50;;;;;;6300929;28;20703;-66
2021/08/29 12:18:41;;;;;;;1.13;0.80;;;25.30;43.60;;;;;;6300817;28;20226;-67
2021/08/29 12:21:45;;;;;;;0.90;0.60;;;25.40;43.80;;;;;;6300857;28;20238;-67
2021/08/29 12:24:49;;;;;;;0.70;0.50;;;25.40;43.40;;;;;;6300886;28;20230;-67
2021/08/29 12:28:05;;;;;;;0.90;0.70;;;25.40;42.80;;;;;;6300844;28;20249;-68
2021/08/29 12:31:08;;;;;;;0.80;0.50;;;25.50;43.80;;;;;;6301079;28;20230;-67
2021/08/29 12:34:14;;;;;;;1.17;0.63;;;25.90;43.00;;;;;;6300262;28;20364;-68
2021/08/29 12:37:17;;;;;;;0.80;0.60;;;26.20;42.90;;;;;;6300278;28;20238;-68
2021/08/29 12:40:22;;;;;;;0.90;0.60;;;26.60;42.30;;;;;;6299867;28;20546;-68
2021/08/29 12:43:27;;;;;;;0.80;0.50;;;26.80;39.60;;;;;;6300902;28;20261;-68
2021/08/29 12:46:31;;;;;;;0.90;0.80;;;26.90;40.20;;;;;;6299894;28;20601;-68
2021/08/29 12:49:36;;;;;;;1.33;0.70;;;26.90;40.20;;;;;;6300223;28;20230;-68
2021/08/29 12:52:42;;;;;;;1.33;0.70;;;26.60;40.60;;;;;;6290227;28;20724;-68
2021/08/29 12:55:48;;;;;;;1.00;0.70;;;26.30;41.20;;;;;;6300165;28;20230;-68
2021/08/29 12:58:52;;;;;;;1.00;0.63;;;25.80;41.50;;;;;;6299474;28;20242;-68
2021/08/29 13:01:57;;;;;;;0.90;0.60;;;25.40;41.40;;;;;;6306117;28;20237;-68
2021/08/29 13:05:02;;;;;;;0.80;0.60;;;25.20;42.20;;;;;;6331981;28;20221;-68
2021/08/29 13:08:07;;;;;;;1.00;0.90;;;25.00;41.10;;;;;;6335944;28;20225;-67
2021/08/29 13:11:12;;;;;;;0.90;0.90;;;24.00;51.30;;;;;;6337077;28;20306;-68
2021/08/29 13:14:27;;;;;;;0.87;0.70;;;23.20;52.30;;;;;;6338733;28;20225;-68
2021/08/29 13:17:31;;;;;;;1.10;0.77;;;22.80;53.90;;;;;;6349570;28;20234;-68
2021/08/29 13:20:38;;;;;;;1.13;1.03;;;22.60;54.80;;;;;;6348657;28;20422;-69
2021/08/29 13:23:41;;;;;;;0.97;0.70;;;22.50;55.00;;;;;;6349628;27;20245;-69
2021/08/29 13:26:44;;;;;;;1.00;0.80;;;21.90;56.40;;;;;;6349473;27;20234;-69
2021/08/29 13:29:47;;;;;;;1.67;1.13;;;21.70;58.00;;;;;;6349545;28;20236;-68
2021/08/29 13:32:51;;;;;;;1.50;1.10;;;21.90;58.40;;;;;;6349519;28;20269;-69
2021/08/29 13:36:02;;;;;;;3.00;1.07;;;22.00;58.20;;;;;;6349417;28;20575;-68
2021/08/29 13:39:12;;;;;;;1.30;1.10;;;22.10;58.70;;;;;;6349206;28;20240;-68
2021/08/29 13:42:22;;;;;;;1.17;0.90;;;21.50;60.80;;;;;;6349426;28;20221;-68
2021/08/29 13:45:28;;;;;;;3.70;0.80;;;20.90;62.90;;;;;;6349522;28;20210;-68
2021/08/29 13:48:32;;;;;;;4.37;0.97;;;20.70;62.50;;;;;;6348893;28;20576;-68
2021/08/29 13:51:36;;;;;;;2.43;0.90;;;20.40;63.80;;;;;;6348980;28;20332;-68
2021/08/29 13:54:40;;;;;;;0.80;0.80;;;20.70;63.70;;;;;;6344266;28;20556;-68
2021/08/29 13:57:43;;;;;;;4.93;1.00;;;20.40;63.70;;;;;;6348855;28;20244;-68
2021/08/29 14:00:46;;;;;;;1.10;1.00;;;20.70;64.10;;;;;;6326281;28;20234;-68
2021/08/29 14:03:50;;;;;;;0.90;0.73;;;20.90;63.80;;;;;;6298056;28;20240;-68
2021/08/29 14:06:55;;;;;;;1.30;1.10;;;20.90;64.30;;;;;;6297989;28;20288;-68
2021/08/29 14:09:58;;;;;;;0.80;0.80;;;21.20;63.90;;;;;;6309443;28;20713;-68
2021/08/29 14:13:01;;;;;;;1.13;0.93;;;21.00;65.30;;;;;;6340645;28;20618;-68
2021/08/29 14:16:05;;;;;;;1.23;1.00;;;21.10;65.90;;;;;;6334247;28;20241;-68
2021/08/29 14:19:08;;;;;;;1.00;0.90;;;21.30;65.90;;;;;;6333373;28;20228;-68
2021/08/29 14:22:13;;;;;;;1.20;0.93;;;21.40;64.90;;;;;;6334960;28;20897;-68
2021/08/29 14:25:16;;;;;;;1.40;1.27;;;21.60;64.40;;;;;;6339941;28;20679;-68
2021/08/29 14:28:19;;;;;;;0.70;0.57;;;21.80;64.40;;;;;;6339482;28;20221;-68
2021/08/29 14:31:22;;;;;;;1.00;0.90;;;21.60;64.10;;;;;;6322246;28;20226;-68
2021/08/29 14:34:26;;;;;;;0.87;0.83;;;21.50;65.50;;;;;;6322216;28;20560;-68
2021/08/29 14:37:31;;;;;;;1.40;1.03;;;21.60;65.80;;;;;;6327525;28;20282;-68
2021/08/29 14:40:34;;;;;;;1.43;1.10;;;21.70;64.70;;;;;;6322258;28;20218;-68
2021/08/29 14:43:39;;;;;;;1.37;1.27;;;21.70;64.20;;;;;;6323141;28;20218;-68
2021/08/29 14:46:42;;;;;;;1.00;0.90;;;21.60;63.70;;;;;;6322480;28;20237;-68
2021/08/29 14:49:46;;;;;;;1.20;0.80;;;21.50;63.00;;;;;;6321393;28;20684;-69
2021/08/29 14:52:51;;;;;;;1.03;0.90;;;21.40;62.30;;;;;;6319815;28;20226;-68
2021/08/29 14:55:54;;;;;;;1.97;0.87;;;21.30;61.60;;;;;;6322216;28;20229;-68
2021/08/29 14:58:58;;;;;;;1.50;1.10;;;21.10;63.50;;;;;;6321434;28;20697;-69
2021/08/29 15:02:01;;;;;;;1.10;1.00;;;20.90;64.30;;;;;;6319381;28;20225;-69
2021/08/29 15:05:05;;;;;;;1.57;1.47;;;20.50;64.80;;;;;;6319489;28;20217;-68
2021/08/29 15:08:09;;;;;;;1.13;1.00;;;20.20;67.30;;;;;;6320291;28;20561;-70
2021/08/29 15:11:13;;;;;;;1.30;1.20;;;20.00;68.10;;;;;;6318910;28;20218;-68
2021/08/29 15:14:16;;;;;;;2.60;0.90;;;19.80;69.30;;;;;;6323574;28;20615;-68
2021/08/29 15:17:19;;;;;;;0.83;0.80;;;19.40;71.30;;;;;;6335164;28;20228;-68
2021/08/29 15:20:22;;;;;;;1.10;1.00;;;19.40;71.10;;;;;;6321853;28;20233;-69
2021/08/29 15:23:27;;;;;;;1.13;1.03;;;19.20;72.20;;;;;;6321513;28;20222;-66
2021/08/29 15:26:30;;;;;;;1.30;0.70;;;19.20;71.80;;;;;;6321530;28;20234;-66
2021/08/29 15:29:33;;;;;;;1.33;0.90;;;19.10;72.00;;;;;;6321363;28;20710;-65
2021/08/29 15:32:37;;;;;;;1.00;0.90;;;19.00;72.50;;;;;;6329672;28;20221;-65
2021/08/29 15:35:40;;;;;;;1.30;1.03;;;18.90;73.70;;;;;;6299423;28;20230;-65
2021/08/29 15:38:44;;;;;;;0.93;0.77;;;18.90;75.40;;;;;;6325420;28;20725;-65
2021/08/29 15:41:48;;;;;;;1.23;1.10;;;18.90;76.40;;;;;;6300784;28;20292;-65
2021/08/29 15:44:51;;;;;;;1.63;0.80;;;19.00;77.00;;;;;;6314496;28;20233;-65
2021/08/29 15:47:54;;;;;;;1.00;1.00;;;19.10;77.50;;;;;;6313026;28;20237;-65
2021/08/29 15:50:57;;;;;;;2.17;1.80;;;19.20;78.20;;;;;;6301071;28;20227;-65
2021/08/29 15:54:02;;;;;;;1.80;1.30;;;19.50;78.00;;;;;;6317180;28;20237;-65
2021/08/29 15:57:06;;;;;;;2.03;1.60;;;19.80;78.10;;;;;;6300611;28;20222;-64
2021/08/29 16:00:10;;;;;;;1.17;1.07;;;20.00;77.70;;;;;;6309616;28;20249;-66
2021/08/29 16:03:13;;;;;;;1.03;0.93;;;20.20;76.00;;;;;;6324190;28;20225;-66